createdAt,value
2023-02-09T00:00:10.137Z,15.02
2023-02-09T00:02:38.022Z,14.88
2023-02-09T00:05:05.110Z,16.27
2023-02-09T00:07:31.731Z,13.48
2023-02-09T00:09:58.435Z,12.82
2023-02-09T00:12:43.675Z,14.40
2023-02-09T00:15:10.232Z,16.63
2023-02-09T00:17:37.183Z,16.15
2023-02-09T00:20:05.810Z,14.02
2023-02-09T00:22:32.733Z,13.38
2023-02-09T00:24:59.359Z,14.07
2023-02-09T00:27:25.944Z,13.25
2023-02-09T00:29:52.459Z,13.80
2023-02-09T00:32:19.336Z,14.73
2023-02-09T00:34:45.898Z,15.45
2023-02-09T00:37:12.408Z,15.88
2023-02-09T00:39:38.884Z,16.20
2023-02-09T00:42:08.403Z,14.98
2023-02-09T00:44:36.338Z,13.15
2023-02-09T00:47:03.308Z,16.25
2023-02-09T00:49:30.823Z,15.95
2023-02-09T00:51:57.749Z,15.70
2023-02-09T00:54:24.601Z,15.70
2023-02-09T00:56:51.293Z,15.88
2023-02-09T00:59:18.275Z,15.32
2023-02-09T01:01:44.858Z,12.93
2023-02-09T01:04:11.405Z,15.00
2023-02-09T01:06:37.900Z,16.73
2023-02-09T01:09:04.464Z,13.85
2023-02-09T01:11:31.212Z,13.32
2023-02-09T01:13:59.056Z,14.68
2023-02-09T01:16:28.888Z,12.98
2023-02-09T01:18:56.183Z,16.55
2023-02-09T01:21:22.950Z,13.60
2023-02-09T01:23:49.888Z,16.98
2023-02-09T01:26:17.946Z,12.65
2023-02-09T01:28:47.916Z,15.13
2023-02-09T01:31:19.816Z,15.18
2023-02-09T01:33:46.647Z,12.77
2023-02-09T01:36:13.221Z,15.88
2023-02-09T01:38:42.666Z,15.48
2023-02-09T01:41:09.720Z,13.80
2023-02-09T01:44:06.060Z,14.95
2023-02-09T01:46:36.928Z,13.43
2023-02-09T01:49:06.752Z,14.98
2023-02-09T01:51:41.141Z,14.63
2023-02-09T01:54:12.478Z,18.17
2023-02-09T01:56:42.968Z,13.20
2023-02-09T01:59:10.796Z,13.82
2023-02-09T02:01:38.939Z,13.95
2023-02-09T02:04:05.865Z,14.57
2023-02-09T02:06:32.885Z,12.20
2023-02-09T02:09:05.367Z,14.80
2023-02-09T02:11:32.969Z,14.68
2023-02-09T02:13:59.501Z,16.45
2023-02-09T02:16:47.594Z,21.23
2023-02-09T02:19:29.233Z,13.77
2023-02-09T02:22:04.975Z,13.88
2023-02-09T02:24:50.280Z,16.65
2023-02-09T02:27:31.564Z,11.43
2023-02-09T02:30:07.081Z,13.48
2023-02-09T02:32:48.573Z,14.95
2023-02-09T02:35:23.821Z,14.27
2023-02-09T02:38:15.017Z,13.75
2023-02-09T02:40:51.068Z,14.57
2023-02-09T02:43:42.933Z,14.23
2023-02-09T02:46:17.303Z,12.68
2023-02-09T02:48:56.466Z,15.63
2023-02-09T02:51:40.051Z,13.82
2023-02-09T02:54:14.639Z,11.80
2023-02-09T02:56:46.483Z,18.95
2023-02-09T02:59:17.076Z,15.90
2023-02-09T03:01:53.661Z,13.43
2023-02-09T03:04:21.197Z,10.23
2023-02-09T03:06:47.803Z,14.82
2023-02-09T03:09:17.954Z,14.18
2023-02-09T03:11:47.496Z,14.20
2023-02-09T03:14:32.254Z,13.20
2023-02-09T03:17:06.670Z,12.60
2023-02-09T03:19:51.696Z,11.32
2023-02-09T03:22:42.138Z,14.35
2023-02-09T03:25:20.085Z,14.52
2023-02-09T03:27:54.095Z,11.18
2023-02-09T03:30:21.984Z,14.73
2023-02-09T03:32:48.862Z,12.25
2023-02-09T03:35:18.112Z,13.32
2023-02-09T03:37:44.679Z,12.07
2023-02-09T03:40:11.441Z,11.90
2023-02-09T03:42:38.167Z,13.80
2023-02-09T03:45:08.090Z,11.77
2023-02-09T03:47:34.904Z,12.80
2023-02-09T03:50:01.473Z,12.98
2023-02-09T03:52:28.246Z,13.18
2023-02-09T03:54:54.806Z,12.65
2023-02-09T03:57:21.408Z,16.60
2023-02-09T03:59:48.037Z,13.77
2023-02-09T04:02:15.085Z,13.40
2023-02-09T04:04:41.695Z,14.68
2023-02-09T04:07:08.560Z,15.27
2023-02-09T04:09:38.018Z,12.70
2023-02-09T04:12:04.891Z,14.20
2023-02-09T04:14:31.531Z,11.75
2023-02-09T04:16:58.058Z,13.88
2023-02-09T04:19:24.606Z,13.18
2023-02-09T04:21:51.492Z,11.50
2023-02-09T04:24:18.065Z,14.88
2023-02-09T04:26:44.812Z,13.80
2023-02-09T04:29:11.420Z,11.43
2023-02-09T04:31:38.187Z,11.45
2023-02-09T04:34:04.845Z,11.98
2023-02-09T04:36:31.379Z,11.82
2023-02-09T04:38:57.978Z,11.68
2023-02-09T04:41:24.668Z,14.45
2023-02-09T04:43:51.360Z,13.27
2023-02-09T04:46:18.523Z,11.18
2023-02-09T04:48:45.814Z,12.93
2023-02-09T04:51:12.725Z,11.82
2023-02-09T04:53:39.225Z,12.43
2023-02-09T04:56:06.487Z,11.93
2023-02-09T04:58:51.755Z,12.65
2023-02-09T05:01:24.173Z,13.25
2023-02-09T05:03:51.136Z,14.50
2023-02-09T05:06:17.832Z,12.77
2023-02-09T05:08:44.501Z,11.57
2023-02-09T05:11:11.710Z,12.27
2023-02-09T05:13:38.365Z,13.27
2023-02-09T05:16:06.753Z,10.70
2023-02-09T05:18:33.477Z,13.73
2023-02-09T05:21:00.216Z,14.32
2023-02-09T05:23:26.810Z,11.40
2023-02-09T05:25:54.661Z,11.80
2023-02-09T05:28:21.241Z,13.55
2023-02-09T05:30:49.267Z,12.15
2023-02-09T05:33:16.006Z,12.57
2023-02-09T05:35:42.541Z,14.27
2023-02-09T05:38:09.102Z,12.77
2023-02-09T05:40:38.145Z,12.75
2023-02-09T05:43:04.887Z,13.00
2023-02-09T05:45:31.475Z,12.30
2023-02-09T05:47:58.116Z,12.45
2023-02-09T05:50:24.758Z,14.20
2023-02-09T05:52:51.388Z,13.73
2023-02-09T05:55:18.013Z,10.68
2023-02-09T05:57:44.590Z,14.95
2023-02-09T06:00:12.185Z,12.93
2023-02-09T06:02:39.064Z,11.48
2023-02-09T06:05:06.032Z,12.82
2023-02-09T06:07:32.578Z,12.00
2023-02-09T06:09:59.059Z,11.30
2023-02-09T06:12:25.952Z,11.45
2023-02-09T06:14:52.635Z,13.93
2023-02-09T06:17:19.159Z,12.00
2023-02-09T06:19:45.693Z,12.38
2023-02-09T06:22:12.220Z,12.23
2023-02-09T06:24:38.741Z,13.10
2023-02-09T06:27:05.231Z,11.05
2023-02-09T06:29:31.861Z,12.65
2023-02-09T06:31:58.776Z,11.18
2023-02-09T06:34:26.002Z,13.10
2023-02-09T06:36:52.633Z,12.25
2023-02-09T06:39:19.143Z,13.20
2023-02-09T06:41:45.988Z,13.00
2023-02-09T06:44:13.156Z,13.95
2023-02-09T06:46:39.865Z,14.63
2023-02-09T06:49:06.501Z,11.13
2023-02-09T06:51:33.265Z,13.85
2023-02-09T06:54:00.091Z,12.82
2023-02-09T06:56:26.646Z,15.45
2023-02-09T06:58:53.352Z,13.68
2023-02-09T07:01:19.995Z,14.20
2023-02-09T07:03:46.602Z,14.27
2023-02-09T07:06:16.010Z,13.00
2023-02-09T07:08:44.392Z,13.32
2023-02-09T07:11:14.551Z,13.65
2023-02-09T07:13:41.121Z,12.35
2023-02-09T07:16:09.755Z,13.13
2023-02-09T07:18:36.911Z,13.20
2023-02-09T07:21:09.161Z,12.05
2023-02-09T07:23:36.655Z,13.55
2023-02-09T07:26:10.594Z,15.18
2023-02-09T07:28:38.280Z,17.38
2023-02-09T07:31:07.890Z,14.77
2023-02-09T07:33:34.832Z,11.73
2023-02-09T07:36:04.893Z,13.88
2023-02-09T07:38:31.785Z,14.45
2023-02-09T07:41:00.138Z,13.68
2023-02-09T07:43:27.337Z,13.75
2023-02-09T07:46:00.962Z,14.77
2023-02-09T07:48:27.867Z,16.20
2023-02-09T07:50:54.485Z,14.07
2023-02-09T07:53:21.074Z,11.52
2023-02-09T07:55:47.936Z,13.35
2023-02-09T07:58:20.379Z,13.55
2023-02-09T08:00:49.241Z,13.23
2023-02-09T08:03:22.598Z,13.00
2023-02-09T08:06:24.247Z,10.52
2023-02-09T08:08:53.048Z,12.27
2023-02-09T08:11:28.940Z,13.23
2023-02-09T08:13:59.679Z,13.45
2023-02-09T08:16:29.755Z,14.07
2023-02-09T08:19:02.598Z,14.20
2023-02-09T08:21:36.494Z,13.55
2023-02-09T08:24:04.238Z,16.30
2023-02-09T08:26:31.037Z,14.30
2023-02-09T08:28:58.153Z,13.93
2023-02-09T08:31:25.405Z,14.32
2023-02-09T08:33:52.123Z,15.80
2023-02-09T08:36:20.498Z,13.07
2023-02-09T08:38:48.357Z,13.82
2023-02-09T08:41:16.699Z,11.90
2023-02-09T08:43:48.023Z,13.25
2023-02-09T08:48:43.420Z,13.23
2023-02-09T08:51:12.249Z,15.38
2023-02-09T08:53:39.283Z,15.48
2023-02-09T08:56:06.710Z,15.02
2023-02-09T08:58:33.557Z,13.60
2023-02-09T09:01:00.678Z,14.93
2023-02-09T09:03:31.384Z,14.82
2023-02-09T09:05:59.891Z,13.80
2023-02-09T09:08:26.958Z,16.45
2023-02-09T09:10:53.686Z,21.75
2023-02-09T09:13:21.075Z,13.80
2023-02-09T09:15:51.039Z,13.65
2023-02-09T09:18:17.684Z,14.50
2023-02-09T09:20:44.368Z,13.02
2023-02-09T09:23:11.595Z,14.63
2023-02-09T09:25:39.400Z,15.20
2023-02-09T09:28:06.846Z,14.70
2023-02-09T09:30:36.058Z,14.80
2023-02-09T09:33:03.764Z,15.98
2023-02-09T09:35:31.314Z,13.93
2023-02-09T09:37:58.747Z,13.88
2023-02-09T09:40:29.178Z,14.45
2023-02-09T09:42:58.263Z,18.42
2023-02-09T09:45:28.556Z,15.10
2023-02-09T09:47:58.582Z,16.40
2023-02-09T09:50:46.164Z,16.02
2023-02-09T09:53:37.706Z,15.52
2023-02-09T09:56:08.103Z,16.67
2023-02-09T09:58:39.303Z,14.45
2023-02-09T10:03:37.329Z,16.65
2023-02-09T10:06:16.704Z,15.45
2023-02-09T10:08:49.932Z,15.43
2023-02-09T10:11:22.251Z,16.63
2023-02-09T10:13:51.417Z,18.15
2023-02-09T10:16:34.457Z,15.70
2023-02-09T10:19:04.199Z,13.88
2023-02-09T10:21:39.836Z,15.02
2023-02-09T10:24:13.558Z,17.60
2023-02-09T10:26:43.404Z,15.82
2023-02-09T10:29:12.923Z,17.83
2023-02-09T10:31:47.445Z,17.00
2023-02-09T10:34:17.482Z,14.50
2023-02-09T10:37:04.988Z,17.55
2023-02-09T10:39:34.372Z,16.45
2023-02-09T10:42:19.210Z,16.23
2023-02-09T10:44:51.854Z,16.00
2023-02-09T10:47:23.437Z,18.23
2023-02-09T10:50:14.027Z,18.48
2023-02-09T10:52:55.523Z,17.38
2023-02-09T10:55:36.139Z,17.58
2023-02-09T10:58:05.928Z,16.92
2023-02-09T11:00:41.492Z,16.40
2023-02-09T11:03:25.268Z,18.13
2023-02-09T11:06:02.328Z,19.45
2023-02-09T11:08:43.824Z,19.75
2023-02-09T11:11:31.351Z,16.30
2023-02-09T11:13:58.391Z,18.15
2023-02-09T11:16:44.493Z,19.15
2023-02-09T11:19:22.475Z,18.00
2023-02-09T11:22:13.060Z,17.88
2023-02-09T11:25:09.312Z,20.23
2023-02-09T11:27:51.115Z,18.33
2023-02-09T11:30:42.418Z,18.98
2023-02-09T11:33:33.901Z,19.70
2023-02-09T11:36:25.063Z,18.33
2023-02-09T11:38:56.253Z,22.73
2023-02-09T11:41:54.746Z,19.52
2023-02-09T11:44:42.944Z,20.13
2023-02-09T11:47:26.066Z,18.98
2023-02-09T11:49:54.324Z,18.50
2023-02-09T11:52:29.764Z,19.63
2023-02-09T11:55:02.513Z,20.60
2023-02-09T11:57:39.409Z,20.50
2023-02-09T12:00:15.858Z,22.38
2023-02-09T12:03:12.158Z,22.10
2023-02-09T12:05:40.674Z,19.15
2023-02-09T12:08:29.726Z,18.33
2023-02-09T12:11:11.449Z,20.52
2023-02-09T12:14:01.657Z,18.92
2023-02-09T12:16:34.314Z,20.05
2023-02-09T12:19:02.445Z,21.73
2023-02-09T12:21:34.804Z,22.80
2023-02-09T12:24:01.941Z,17.98
2023-02-09T12:26:42.046Z,20.08
2023-02-09T12:29:23.821Z,19.30
2023-02-09T12:32:08.721Z,19.67
2023-02-09T12:34:35.338Z,19.83
2023-02-09T12:37:28.647Z,22.63
2023-02-09T12:40:18.518Z,21.40
2023-02-09T12:43:05.498Z,21.85
2023-02-09T12:45:40.312Z,19.20
2023-02-09T12:48:09.847Z,21.15
2023-02-09T12:50:42.459Z,21.20
2023-02-09T12:53:24.386Z,22.92
2023-02-09T12:56:06.331Z,20.80
2023-02-09T12:58:37.784Z,20.23
2023-02-09T13:01:05.404Z,25.02
2023-02-09T13:03:40.514Z,21.00
2023-02-09T13:06:23.194Z,20.05
2023-02-09T13:08:54.540Z,21.73
2023-02-09T13:11:29.679Z,21.17
2023-02-09T13:14:01.885Z,21.65
2023-02-09T13:16:49.877Z,22.25
2023-02-09T13:19:48.061Z,21.05
2023-02-09T13:22:20.996Z,24.35
2023-02-09T13:24:59.774Z,25.55
2023-02-09T13:27:27.858Z,22.40
2023-02-09T13:29:56.992Z,21.67
2023-02-09T13:32:34.866Z,21.35
2023-02-09T13:35:24.102Z,24.52
2023-02-09T13:37:58.647Z,22.92
2023-02-09T13:40:33.895Z,24.40
2023-02-09T13:43:17.595Z,22.48
2023-02-09T13:45:52.890Z,22.50
2023-02-09T13:48:30.291Z,22.30
2023-02-09T13:51:00.577Z,22.90
2023-02-09T13:53:29.372Z,23.83
2023-02-09T13:55:58.632Z,25.52
2023-02-09T13:58:25.126Z,27.00
2023-02-09T14:00:55.849Z,22.92
2023-02-09T14:03:32.171Z,26.67
2023-02-09T14:06:25.706Z,26.67
2023-02-09T14:08:57.036Z,25.17
2023-02-09T14:11:48.269Z,26.27
2023-02-09T14:14:27.303Z,26.33
2023-02-09T14:17:30.985Z,25.58
2023-02-09T14:20:03.475Z,24.20
2023-02-09T14:22:41.239Z,25.67
2023-02-09T14:25:14.153Z,25.25
2023-02-09T14:27:47.954Z,25.23
2023-02-09T14:30:23.730Z,27.58
2023-02-09T14:32:57.635Z,29.75
2023-02-09T14:35:29.178Z,24.85
2023-02-09T14:38:01.910Z,24.48
2023-02-09T14:40:34.160Z,24.45
2023-02-09T14:43:11.225Z,26.25
2023-02-09T14:45:44.584Z,24.23
2023-02-09T14:48:23.399Z,25.33
2023-02-09T14:51:01.469Z,24.80
2023-02-09T14:53:34.388Z,26.70
2023-02-09T14:56:01.053Z,25.88
2023-02-09T14:58:30.731Z,24.40
2023-02-09T15:01:01.432Z,26.23
2023-02-09T15:03:28.455Z,26.42
2023-02-09T15:05:59.113Z,29.67
2023-02-09T15:08:28.630Z,24.58
2023-02-09T15:11:24.491Z,25.40
2023-02-09T15:13:58.477Z,26.70
2023-02-09T15:16:25.117Z,27.00
2023-02-09T15:18:51.817Z,28.83
2023-02-09T15:21:18.623Z,25.50
2023-02-09T15:23:45.190Z,30.70
2023-02-09T15:26:16.839Z,28.50
2023-02-09T15:28:43.645Z,28.60
2023-02-09T15:31:16.100Z,28.67
2023-02-09T15:33:43.403Z,27.17
2023-02-09T15:36:19.798Z,28.20
2023-02-09T15:38:46.718Z,29.33
2023-02-09T15:41:32.379Z,28.67
2023-02-09T15:44:32.116Z,30.70
2023-02-09T15:47:17.257Z,28.45
2023-02-09T15:49:43.806Z,27.30
2023-02-09T15:52:10.785Z,26.63
2023-02-09T15:54:37.777Z,31.40
2023-02-09T15:57:04.458Z,31.83
2023-02-09T15:59:31.078Z,30.27
2023-02-09T16:02:00.272Z,29.52
2023-02-09T16:04:27.091Z,28.02
2023-02-09T16:06:54.691Z,27.13
2023-02-09T16:09:23.657Z,29.10
2023-02-09T16:11:50.427Z,29.15
2023-02-09T16:14:20.638Z,28.35
2023-02-09T16:16:48.877Z,28.15
2023-02-09T16:19:16.971Z,31.10
2023-02-09T16:21:47.423Z,31.25
2023-02-09T16:24:26.389Z,31.85
2023-02-09T16:26:53.012Z,29.65
2023-02-09T16:29:19.878Z,31.95
2023-02-09T16:31:46.544Z,29.55
2023-02-09T16:34:15.723Z,31.33
2023-02-09T16:36:43.131Z,33.85
2023-02-09T16:39:17.181Z,34.10
2023-02-09T16:41:47.175Z,29.88
2023-02-09T16:44:21.996Z,34.78
2023-02-09T16:46:53.346Z,32.88
2023-02-09T16:49:31.157Z,33.83
2023-02-09T16:52:02.166Z,33.80
2023-02-09T16:54:32.635Z,31.85
2023-02-09T16:56:59.441Z,32.70
2023-02-09T16:59:26.167Z,32.42
2023-02-09T17:01:53.038Z,37.70
2023-02-09T17:04:20.044Z,34.20
2023-02-09T17:06:50.637Z,34.17
2023-02-09T17:09:17.340Z,34.45
2023-02-09T17:11:44.352Z,31.73
2023-02-09T17:14:12.442Z,34.58
2023-02-09T17:16:43.437Z,32.03
2023-02-09T17:19:15.872Z,37.50
2023-02-09T17:21:42.986Z,35.13
2023-02-09T17:24:14.603Z,34.67
2023-02-09T17:26:41.531Z,36.22
2023-02-09T17:29:08.699Z,34.78
2023-02-09T17:31:51.894Z,37.03
2023-02-09T17:34:20.724Z,31.63
2023-02-09T17:36:47.462Z,33.92
2023-02-09T17:39:14.277Z,33.78
2023-02-09T17:41:46.579Z,33.47
2023-02-09T17:44:35.353Z,34.63
2023-02-09T17:47:15.575Z,36.50
2023-02-09T17:49:42.411Z,34.50
2023-02-09T17:52:17.658Z,35.42
2023-02-09T17:54:45.580Z,39.20
2023-02-09T17:57:17.149Z,35.72
2023-02-09T17:59:47.933Z,40.22
2023-02-09T18:02:19.823Z,34.85
2023-02-09T18:04:48.448Z,36.72
2023-02-09T18:07:20.430Z,38.05
2023-02-09T18:09:47.390Z,37.83
2023-02-09T18:12:20.264Z,41.55
2023-02-09T18:14:47.012Z,35.20
2023-02-09T18:17:13.679Z,40.22
2023-02-09T18:19:40.285Z,35.25
2023-02-09T18:22:07.210Z,37.13
2023-02-09T18:24:35.606Z,43.50
2023-02-09T18:27:02.550Z,38.95
2023-02-09T18:29:30.188Z,39.30
2023-02-09T18:32:02.072Z,39.03
2023-02-09T18:34:29.396Z,34.28
2023-02-09T18:36:56.229Z,45.60
2023-02-09T18:39:22.910Z,34.40
2023-02-09T18:41:54.437Z,38.42
2023-02-09T18:44:29.010Z,40.30
2023-02-09T18:46:57.541Z,34.55
2023-02-09T18:49:24.189Z,35.80
2023-02-09T18:51:52.250Z,37.58
2023-02-09T18:54:19.311Z,34.78
2023-02-09T18:56:46.060Z,38.42
2023-02-09T18:59:12.981Z,37.08
2023-02-09T19:01:40.706Z,40.40
2023-02-09T19:04:08.003Z,39.10
2023-02-09T19:06:35.604Z,39.80
2023-02-09T19:09:02.975Z,41.50
2023-02-09T19:11:30.735Z,38.05
2023-02-09T19:14:15.877Z,40.58
2023-02-09T19:16:43.006Z,42.47
2023-02-09T19:19:09.663Z,41.08
2023-02-09T19:21:36.298Z,40.17
2023-02-09T19:24:03.077Z,38.85
2023-02-09T19:26:29.750Z,43.97
2023-02-09T19:28:57.599Z,35.28
2023-02-09T19:31:24.875Z,38.05
2023-02-09T19:33:56.575Z,36.10
2023-02-09T19:36:24.441Z,39.40
2023-02-09T19:38:51.096Z,41.70
2023-02-09T19:41:17.789Z,39.58
2023-02-09T19:43:44.378Z,41.00
2023-02-09T19:46:11.298Z,37.55
2023-02-09T19:48:40.386Z,37.10
2023-02-09T19:51:07.974Z,36.80
2023-02-09T19:53:35.400Z,39.45
2023-02-09T19:56:02.503Z,37.58
2023-02-09T19:58:29.199Z,40.78
2023-02-09T20:00:56.228Z,40.40
2023-02-09T20:03:24.182Z,35.97
2023-02-09T20:05:51.753Z,39.33
2023-02-09T20:08:19.925Z,35.00
2023-02-09T20:10:46.942Z,38.35
2023-02-09T20:13:14.874Z,35.05
2023-02-09T20:15:43.931Z,38.85
2023-02-09T20:18:13.434Z,35.67
2023-02-09T20:20:43.092Z,35.42
2023-02-09T20:23:10.229Z,37.05
2023-02-09T20:25:40.472Z,37.22
2023-02-09T20:28:07.308Z,44.75
2023-02-09T20:30:34.077Z,39.45
2023-02-09T20:33:01.041Z,37.63
2023-02-09T20:35:27.701Z,33.72
2023-02-09T20:37:54.388Z,37.28
2023-02-09T20:40:21.702Z,36.95
2023-02-09T20:43:06.980Z,33.13
2023-02-09T20:45:52.120Z,33.20
2023-02-09T20:48:20.172Z,37.47
2023-02-09T20:50:47.072Z,36.13
2023-02-09T20:53:14.000Z,34.92
2023-02-09T20:55:40.694Z,34.80
2023-02-09T20:58:07.369Z,38.13
2023-02-09T21:00:34.134Z,38.45
2023-02-09T21:03:00.792Z,38.58
2023-02-09T21:05:27.505Z,37.08
2023-02-09T21:07:54.339Z,37.47
2023-02-09T21:10:21.490Z,33.30
2023-02-09T21:12:48.143Z,35.53
2023-02-09T21:15:15.376Z,34.42
2023-02-09T21:17:47.567Z,36.03
2023-02-09T21:20:16.504Z,35.72
2023-02-09T21:22:43.630Z,40.67
2023-02-09T21:25:10.499Z,35.70
2023-02-09T21:27:37.202Z,31.40
2023-02-09T21:30:05.102Z,38.78
2023-02-09T21:32:34.929Z,35.20
2023-02-09T21:35:01.692Z,35.67
2023-02-09T21:37:32.082Z,36.92
2023-02-09T21:40:03.021Z,37.03
2023-02-09T21:42:31.302Z,39.22
2023-02-09T21:44:59.658Z,34.63
2023-02-09T21:47:31.082Z,35.90
2023-02-09T21:49:58.216Z,38.25
2023-02-09T21:52:25.337Z,35.97
2023-02-09T21:54:52.514Z,40.42
2023-02-09T21:57:19.570Z,34.40
2023-02-09T21:59:46.133Z,34.83
2023-02-09T22:02:15.193Z,35.33
2023-02-09T22:04:42.917Z,33.88
2023-02-09T22:07:10.607Z,33.70
2023-02-09T22:09:37.682Z,32.13
2023-02-09T22:12:05.788Z,37.55
2023-02-09T22:14:35.537Z,35.55
2023-02-09T22:17:02.152Z,32.58
2023-02-09T22:19:28.840Z,28.80
2023-02-09T22:21:57.929Z,27.73
2023-02-09T22:24:27.257Z,32.60
2023-02-09T22:26:53.895Z,30.58
2023-02-09T22:29:20.541Z,35.60
2023-02-09T22:31:47.496Z,36.58
2023-02-09T22:34:14.107Z,30.08
2023-02-09T22:36:40.735Z,34.25
2023-02-09T22:39:07.534Z,33.30
2023-02-09T22:41:35.147Z,32.20
2023-02-09T22:44:04.982Z,34.10
2023-02-09T22:46:34.509Z,34.78
2023-02-09T22:49:07.641Z,27.48
2023-02-09T22:51:36.122Z,35.25
2023-02-09T22:54:04.107Z,24.52
2023-02-09T22:56:35.841Z,29.77
2023-02-09T22:59:02.453Z,26.60
2023-02-09T23:01:29.974Z,31.05
2023-02-09T23:03:56.896Z,28.00
2023-02-09T23:06:26.964Z,25.42
2023-02-09T23:08:55.630Z,26.10
2023-02-09T23:11:22.741Z,30.08
2023-02-09T23:13:53.008Z,32.10
2023-02-09T23:16:31.159Z,24.45
2023-02-09T23:19:18.684Z,23.27
2023-02-09T23:21:48.274Z,29.13
2023-02-09T23:24:17.953Z,26.63
2023-02-09T23:26:44.560Z,27.42
2023-02-09T23:29:13.286Z,31.80
2023-02-09T23:31:41.119Z,26.73
2023-02-09T23:34:07.973Z,32.17
2023-02-09T23:36:35.308Z,25.33
2023-02-09T23:39:04.855Z,25.35
2023-02-09T23:41:31.752Z,23.70
2023-02-09T23:43:58.671Z,31.70
2023-02-09T23:46:28.680Z,28.13
2023-02-09T23:48:55.532Z,28.42
2023-02-09T23:51:28.553Z,32.65
2023-02-09T23:53:56.854Z,27.95
2023-02-09T23:56:24.392Z,27.20
2023-02-09T23:58:51.990Z,24.67
